Time;durP1;ratioP1;P1;durP2;ratioP2;P2;SDS_P1;SDS_P2;PMS_P1;PMS_P2;Temp;Humidity;BMP_temperature;BMP_pressure;BME280_temperature;BME280_humidity;BME280_pressure;Samples;Min_cycle;Max_cycle;Signal;HPM_P1;HPM_P2
2021/09/11 00:00:16;;;;;;;11.00;8.40;;;20.10;99.90;;;;;;5090662;28;20036;-62
2021/09/11 00:02:46;;;;;;;9.85;8.15;;;20.00;99.90;;;;;;5088823;28;20076;-66
2021/09/11 00:05:13;;;;;;;9.30;8.40;;;19.90;99.90;;;;;;5091016;28;20028;-62
2021/09/11 00:07:39;;;;;;;8.85;7.13;;;19.90;99.90;;;;;;5090775;28;20020;-61
2021/09/11 00:10:07;;;;;;;8.80;7.78;;;19.90;99.90;;;;;;5089958;28;20408;-60
2021/09/11 00:12:35;;;;;;;9.27;8.38;;;19.90;99.90;;;;;;5091094;28;20082;-63
2021/09/11 00:15:05;;;;;;;10.15;8.07;;;19.70;99.90;;;;;;5090345;28;20237;-61
2021/09/11 00:17:31;;;;;;;10.20;7.55;;;19.60;99.90;;;;;;5090837;28;20508;-62
2021/09/11 00:19:56;;;;;;;7.95;6.40;;;19.50;99.90;;;;;;5089768;28;20036;-61
2021/09/11 00:22:22;;;;;;;7.80;7.00;;;19.50;99.90;;;;;;5090551;28;20035;-61
2021/09/11 00:24:48;;;;;;;8.43;7.53;;;19.60;99.90;;;;;;5089450;28;20049;-61
2021/09/11 00:27:13;;;;;;;10.45;7.72;;;19.40;99.90;;;;;;5089986;28;20039;-61
2021/09/11 00:29:39;;;;;;;8.77;7.90;;;19.50;99.90;;;;;;5089519;28;20059;-67
2021/09/11 00:32:05;;;;;;;8.00;7.18;;;19.50;99.90;;;;;;5091215;28;20028;-62
2021/09/11 00:34:31;;;;;;;8.27;7.53;;;19.50;99.90;;;;;;5091128;28;20128;-64
2021/09/11 00:36:57;;;;;;;13.07;7.43;;;19.40;99.90;;;;;;5089987;28;20074;-60
2021/09/11 00:39:23;;;;;;;10.40;6.90;;;19.30;99.90;;;;;;5090792;28;20024;-62
2021/09/11 00:41:53;;;;;;;8.60;7.03;;;19.30;99.90;;;;;;5089197;28;20056;-64
2021/09/11 00:44:19;;;;;;;8.98;7.57;;;19.30;99.90;;;;;;5088724;28;20032;-62
2021/09/11 00:46:45;;;;;;;8.88;7.60;;;19.30;99.90;;;;;;5090002;28;20032;-63
2021/09/11 00:49:11;;;;;;;8.63;7.50;;;19.30;99.90;;;;;;5090561;28;20036;-62
2021/09/11 00:51:38;;;;;;;9.77;7.68;;;19.30;99.90;;;;;;5091108;28;20449;-61
2021/09/11 00:54:05;;;;;;;8.45;7.65;;;19.30;99.90;;;;;;5089930;28;20097;-62
2021/09/11 00:56:33;;;;;;;9.68;8.23;;;19.40;99.90;;;;;;5090283;28;20115;-66
2021/09/11 00:58:59;;;;;;;9.65;8.65;;;19.50;99.90;;;;;;5089440;28;20524;-61
2021/09/11 01:01:25;;;;;;;7.75;7.05;;;19.50;99.90;;;;;;5090197;28;20137;-61
2021/09/11 01:03:51;;;;;;;8.30;7.47;;;19.50;99.90;;;;;;5087827;28;20114;-66
2021/09/11 01:06:16;;;;;;;9.30;7.63;;;19.50;99.90;;;;;;5088893;28;20035;-61
2021/09/11 01:08:43;;;;;;;8.40;7.60;;;19.60;99.90;;;;;;5088458;28;20024;-63
2021/09/11 01:11:09;;;;;;;8.38;7.45;;;19.60;99.90;;;;;;5088655;28;20315;-61
2021/09/11 01:13:36;;;;;;;8.65;7.18;;;19.60;99.90;;;;;;5089965;28;20020;-61
2021/09/11 01:16:02;;;;;;;7.85;6.85;;;19.60;99.90;;;;;;5089080;28;20327;-63
2021/09/11 01:18:28;;;;;;;8.23;7.35;;;19.60;99.90;;;;;;5088267;28;20031;-61
2021/09/11 01:20:55;;;;;;;8.35;7.53;;;19.60;99.90;;;;;;5088018;28;20415;-62
2021/09/11 01:23:21;;;;;;;8.90;6.95;;;19.60;99.90;;;;;;5088772;28;20031;-61
2021/09/11 01:25:47;;;;;;;8.48;7.68;;;19.60;99.90;;;;;;5089773;28;20481;-74
2021/09/11 01:28:14;;;;;;;8.75;7.10;;;19.60;99.90;;;;;;5086933;28;20495;-63
2021/09/11 01:30:40;;;;;;;8.68;7.55;;;19.50;99.90;;;;;;5089400;28;20020;-62
2021/09/11 01:33:06;;;;;;;8.93;8.02;;;19.50;99.90;;;;;;5089125;28;20109;-63
2021/09/11 01:35:32;;;;;;;9.75;8.18;;;19.50;99.90;;;;;;5090714;28;20020;-62
2021/09/11 01:37:58;;;;;;;8.48;7.60;;;19.50;99.90;;;;;;5090132;28;20373;-62
2021/09/11 01:40:24;;;;;;;8.57;7.55;;;19.60;99.90;;;;;;5091350;28;20027;-62
2021/09/11 01:42:49;;;;;;;10.85;7.57;;;19.50;99.90;;;;;;5089457;28;20028;-62
2021/09/11 01:45:18;;;;;;;8.88;8.07;;;19.60;99.90;;;;;;5091444;28;20036;-62
2021/09/11 01:47:45;;;;;;;8.95;8.15;;;19.50;99.90;;;;;;5090597;28;20020;-69
2021/09/11 01:50:13;;;;;;;9.15;8.25;;;19.50;99.90;;;;;;5089865;28;20028;-62
2021/09/11 01:52:40;;;;;;;8.85;8.05;;;19.60;99.90;;;;;;5089881;28;20081;-62
2021/09/11 01:55:08;;;;;;;9.30;7.88;;;19.50;99.90;;;;;;5090748;28;20034;-62
2021/09/11 01:57:38;;;;;;;9.50;7.70;;;19.50;99.90;;;;;;5090015;28;20403;-62
2021/09/11 02:00:15;;;;;;;9.32;8.20;;;19.50;99.90;;;;;;5090375;28;20255;-61
2021/09/11 02:02:41;;;;;;;9.10;8.20;;;19.50;99.90;;;;;;5089787;28;20441;-61
2021/09/11 02:05:09;;;;;;;9.27;8.18;;;19.50;99.90;;;;;;5090495;28;20036;-61
2021/09/11 02:07:35;;;;;;;8.82;7.70;;;19.50;99.90;;;;;;5090694;28;20063;-61
2021/09/11 02:10:02;;;;;;;10.13;8.50;;;19.40;99.90;;;;;;5090153;28;20056;-61
2021/09/11 02:12:28;;;;;;;9.73;8.73;;;19.50;99.90;;;;;;5091133;28;20017;-61
2021/09/11 02:14:53;;;;;;;13.05;8.20;;;19.30;99.90;;;;;;5090763;28;20039;-61
2021/09/11 02:17:19;;;;;;;9.30;8.40;;;19.40;99.90;;;;;;5090530;28;20107;-61
2021/09/11 02:19:47;;;;;;;9.30;8.40;;;19.40;99.90;;;;;;5090758;28;20032;-79
2021/09/11 02:22:13;;;;;;;10.77;9.07;;;19.40;99.90;;;;;;5091105;28;20024;-61
2021/09/11 02:24:39;;;;;;;16.45;9.85;;;19.40;99.90;;;;;;5090475;28;20056;-61
2021/09/11 02:27:06;;;;;;;11.45;8.65;;;19.40;99.90;;;;;;5088609;28;20272;-61
2021/09/11 02:29:32;;;;;;;10.18;9.13;;;19.40;99.90;;;;;;5090680;28;20032;-60
2021/09/11 02:31:58;;;;;;;10.40;8.95;;;19.50;99.90;;;;;;5088713;28;20045;-61
2021/09/11 02:34:24;;;;;;;9.50;8.23;;;19.40;99.90;;;;;;5090948;28;20028;-61
2021/09/11 02:36:50;;;;;;;9.85;8.95;;;19.40;99.90;;;;;;5090342;28;20058;-63
2021/09/11 02:39:16;;;;;;;9.52;8.63;;;19.40;99.90;;;;;;5089569;28;20023;-62
2021/09/11 02:41:42;;;;;;;9.55;8.57;;;19.40;99.90;;;;;;5090679;28;20024;-62
2021/09/11 02:44:07;;;;;;;9.02;8.23;;;19.30;99.90;;;;;;5093959;28;20085;-62
2021/09/11 02:46:33;;;;;;;10.13;9.07;;;19.30;99.90;;;;;;5094391;28;20139;-61
2021/09/11 02:49:00;;;;;;;9.70;8.80;;;19.30;99.90;;;;;;5092458;28;20427;-61
2021/09/11 02:51:26;;;;;;;10.63;8.88;;;19.30;99.90;;;;;;5094440;28;20152;-61
2021/09/11 02:53:52;;;;;;;10.85;9.52;;;19.20;99.90;;;;;;5094027;28;20032;-62
2021/09/11 02:56:17;;;;;;;9.93;7.60;;;19.20;99.90;;;;;;5093844;28;20035;-62
2021/09/11 02:58:43;;;;;;;10.00;9.00;;;19.20;99.90;;;;;;5092880;28;20028;-62
2021/09/11 03:01:08;;;;;;;11.10;9.82;;;19.20;99.90;;;;;;5092216;28;20035;-62
2021/09/11 03:03:34;;;;;;;10.02;9.02;;;19.10;99.90;;;;;;5094171;28;20366;-62
2021/09/11 03:06:00;;;;;;;9.95;8.98;;;19.00;99.90;;;;;;5093560;28;20081;-62
2021/09/11 03:08:25;;;;;;;9.02;7.97;;;18.90;99.90;;;;;;5093955;28;20039;-62
2021/09/11 03:10:51;;;;;;;10.40;9.30;;;18.80;99.90;;;;;;5093130;28;20118;-62
2021/09/11 03:13:18;;;;;;;9.38;8.48;;;18.90;99.90;;;;;;5093781;28;20035;-62
2021/09/11 03:15:44;;;;;;;9.80;8.82;;;19.00;99.90;;;;;;5093628;28;20484;-62
2021/09/11 03:18:10;;;;;;;9.48;8.57;;;18.90;99.90;;;;;;5093553;28;20036;-61
2021/09/11 03:20:36;;;;;;;10.10;8.85;;;18.90;99.90;;;;;;5093729;28;20020;-61
2021/09/11 03:23:02;;;;;;;9.90;8.90;;;18.90;99.90;;;;;;5091557;28;20118;-61
2021/09/11 03:25:29;;;;;;;14.13;9.75;;;18.90;99.90;;;;;;5091771;28;20136;-62
2021/09/11 03:27:55;;;;;;;12.50;9.50;;;18.90;99.90;;;;;;5093020;28;20052;-61
2021/09/11 03:30:20;;;;;;;10.15;9.15;;;18.90;99.90;;;;;;5093362;28;20059;-61
2021/09/11 03:32:46;;;;;;;11.38;10.18;;;18.90;99.90;;;;;;5092067;28;20118;-61
2021/09/11 03:35:11;;;;;;;9.35;8.23;;;18.90;99.90;;;;;;5092951;28;20024;-61
2021/09/11 03:37:37;;;;;;;10.85;9.75;;;18.90;99.90;;;;;;5091859;28;20028;-61
2021/09/11 03:40:04;;;;;;;10.77;9.70;;;18.90;99.90;;;;;;5092750;28;20110;-61
2021/09/11 03:42:30;;;;;;;11.95;9.30;;;18.80;99.90;;;;;;5093306;28;20024;-61
2021/09/11 03:44:55;;;;;;;10.15;9.15;;;18.90;99.90;;;;;;5091393;28;20032;-62
2021/09/11 03:47:21;;;;;;;11.77;9.65;;;18.80;99.90;;;;;;5093632;28;20043;-62
2021/09/11 03:49:47;;;;;;;13.70;9.55;;;18.90;99.90;;;;;;5091850;28;20028;-62
2021/09/11 03:52:12;;;;;;;13.05;9.68;;;18.90;99.90;;;;;;5092605;28;20094;-61
2021/09/11 03:54:38;;;;;;;10.30;9.10;;;18.90;99.90;;;;;;5092114;28;20162;-60
2021/09/11 03:57:04;;;;;;;10.18;9.18;;;18.90;99.90;;;;;;5090771;28;20078;-61
2021/09/11 03:59:29;;;;;;;12.43;9.88;;;19.00;99.90;;;;;;5093234;28;20475;-61
2021/09/11 04:01:55;;;;;;;9.02;8.13;;;18.90;99.90;;;;;;5090860;28;20035;-61
2021/09/11 04:04:21;;;;;;;10.02;9.13;;;18.90;99.90;;;;;;5092664;28;20094;-61
2021/09/11 04:06:46;;;;;;;12.07;9.45;;;19.00;99.90;;;;;;5092680;28;20031;-61
2021/09/11 04:09:12;;;;;;;11.80;9.73;;;18.90;99.90;;;;;;5090831;28;20181;-61
2021/09/11 04:11:37;;;;;;;12.20;8.90;;;18.90;99.90;;;;;;5091392;28;20512;-61
2021/09/11 04:14:03;;;;;;;10.40;8.95;;;19.00;99.90;;;;;;5092299;28;20115;-61
2021/09/11 04:16:29;;;;;;;10.57;9.50;;;18.80;99.90;;;;;;5092510;28;20067;-61
2021/09/11 04:18:54;;;;;;;12.18;9.70;;;18.80;99.90;;;;;;5091691;28;20035;-61
2021/09/11 04:21:20;;;;;;;10.35;9.30;;;18.80;99.90;;;;;;5092496;28;20114;-61
2021/09/11 04:23:46;;;;;;;10.65;9.35;;;18.80;99.90;;;;;;5092169;28;20036;-61
2021/09/11 04:26:11;;;;;;;12.60;9.00;;;18.80;99.90;;;;;;5091847;28;20422;-61
2021/09/11 04:28:37;;;;;;;13.40;9.23;;;18.80;99.90;;;;;;5092467;28;20035;-61
2021/09/11 04:31:03;;;;;;;9.88;8.88;;;19.00;99.90;;;;;;5090148;28;20047;-61
2021/09/11 04:33:28;;;;;;;9.57;8.70;;;19.00;99.90;;;;;;5092202;28;20032;-61
2021/09/11 04:35:54;;;;;;;10.38;8.90;;;19.00;99.90;;;;;;5091697;28;20024;-62
2021/09/11 04:38:20;;;;;;;9.68;8.65;;;18.90;99.90;;;;;;5090753;28;20031;-62
2021/09/11 04:40:46;;;;;;;9.27;8.30;;;18.90;99.90;;;;;;5092423;28;20024;-60
2021/09/11 04:43:11;;;;;;;9.43;8.52;;;18.90;99.90;;;;;;5091054;28;20081;-61
2021/09/11 04:45:37;;;;;;;12.15;9.27;;;19.00;99.90;;;;;;5090871;28;20463;-61
2021/09/11 04:48:03;;;;;;;13.95;8.68;;;19.00;99.90;;;;;;5091509;28;20020;-62
2021/09/11 04:50:29;;;;;;;9.35;8.45;;;19.00;99.90;;;;;;5092045;28;20457;-62
2021/09/11 04:52:55;;;;;;;11.23;8.02;;;19.00;99.90;;;;;;5090961;28;20028;-66
2021/09/11 04:55:21;;;;;;;10.45;7.90;;;18.90;99.90;;;;;;5091522;28;20069;-62
2021/09/11 04:57:47;;;;;;;8.70;7.80;;;18.90;99.90;;;;;;5090592;28;20032;-62
2021/09/11 05:00:14;;;;;;;8.75;7.82;;;18.80;99.90;;;;;;5090971;28;20024;-62
2021/09/11 05:02:40;;;;;;;8.85;7.95;;;18.70;99.90;;;;;;5090281;28;20032;-62
2021/09/11 05:05:06;;;;;;;9.40;8.18;;;18.60;99.90;;;;;;5089125;28;20036;-62
2021/09/11 05:07:32;;;;;;;10.85;8.05;;;18.70;99.90;;;;;;5091301;28;20063;-62
2021/09/11 05:09:57;;;;;;;11.38;8.32;;;18.80;99.90;;;;;;5090873;28;20051;-63
2021/09/11 05:12:23;;;;;;;10.77;8.57;;;18.80;99.90;;;;;;5091594;28;20121;-61
2021/09/11 05:14:48;;;;;;;10.05;8.20;;;18.80;99.90;;;;;;5090208;28;20076;-62
2021/09/11 05:17:14;;;;;;;11.55;8.65;;;18.80;99.90;;;;;;5090703;28;20063;-61
2021/09/11 05:19:40;;;;;;;10.90;9.00;;;18.80;99.90;;;;;;5090069;28;20024;-61
2021/09/11 05:22:06;;;;;;;10.07;8.00;;;18.80;99.90;;;;;;5090916;28;20035;-62
2021/09/11 05:24:31;;;;;;;9.35;8.38;;;18.80;99.90;;;;;;5091215;28;20524;-62
2021/09/11 05:26:57;;;;;;;9.13;8.23;;;18.80;99.90;;;;;;5089235;28;20024;-66
2021/09/11 05:29:23;;;;;;;7.55;6.57;;;18.80;99.90;;;;;;5090094;28;20024;-61
2021/09/11 05:31:48;;;;;;;9.10;8.00;;;18.80;99.90;;;;;;5091301;28;20082;-62
2021/09/11 05:34:14;;;;;;;8.70;6.95;;;18.80;99.90;;;;;;5088922;28;20043;-61
2021/09/11 05:36:40;;;;;;;8.65;7.00;;;18.80;99.90;;;;;;5091264;28;20077;-61
2021/09/11 05:39:05;;;;;;;10.27;7.30;;;18.70;99.90;;;;;;5089155;28;20358;-61
2021/09/11 05:41:31;;;;;;;7.72;6.90;;;18.70;99.90;;;;;;5090978;28;20059;-61
2021/09/11 05:43:57;;;;;;;8.45;6.82;;;18.70;99.90;;;;;;5089511;28;20031;-61
2021/09/11 05:46:22;;;;;;;8.73;7.78;;;18.60;99.90;;;;;;5091205;28;20123;-61
2021/09/11 05:48:48;;;;;;;8.05;7.00;;;18.70;99.90;;;;;;5091321;28;20405;-61
2021/09/11 05:51:13;;;;;;;7.57;6.53;;;18.70;99.90;;;;;;5089373;28;20062;-62
2021/09/11 05:53:39;;;;;;;9.00;7.57;;;18.70;99.90;;;;;;5089392;28;20024;-61
2021/09/11 05:56:05;;;;;;;6.90;6.18;;;18.70;99.90;;;;;;5090655;28;20032;-62
2021/09/11 05:58:30;;;;;;;11.55;7.47;;;18.80;99.90;;;;;;5090990;28;20028;-61
2021/09/11 06:00:57;;;;;;;8.07;5.95;;;18.80;99.90;;;;;;5089290;28;20034;-62
2021/09/11 06:03:23;;;;;;;14.85;10.70;;;18.90;99.90;;;;;;5090728;28;20461;-62
2021/09/11 06:05:49;;;;;;;6.93;6.32;;;19.00;99.90;;;;;;5091092;28;20473;-62
2021/09/11 06:08:15;;;;;;;10.90;7.57;;;19.00;99.90;;;;;;5089061;28;20028;-62
2021/09/11 06:10:41;;;;;;;12.85;10.40;;;19.10;99.90;;;;;;5091029;28;20059;-64
2021/09/11 06:13:06;;;;;;;8.98;7.18;;;19.20;99.90;;;;;;5088909;28;20404;-63
2021/09/11 06:15:32;;;;;;;11.07;6.57;;;19.10;99.90;;;;;;5089121;28;20020;-61
2021/09/11 06:17:58;;;;;;;7.18;6.05;;;19.20;99.90;;;;;;5092762;28;20024;-61
2021/09/11 06:20:24;;;;;;;8.20;6.47;;;19.00;99.90;;;;;;5094705;28;20093;-62
2021/09/11 06:22:49;;;;;;;7.88;6.18;;;19.10;99.90;;;;;;5094713;28;20115;-62
2021/09/11 06:25:15;;;;;;;10.15;6.35;;;19.10;99.90;;;;;;5093798;28;20055;-62
2021/09/11 06:27:42;;;;;;;12.25;6.57;;;19.20;99.90;;;;;;5093282;28;20047;-63
2021/09/11 06:30:12;;;;;;;6.80;5.85;;;19.20;99.90;;;;;;5093829;28;20024;-62
2021/09/11 06:32:38;;;;;;;6.70;5.97;;;19.20;99.90;;;;;;5094767;28;20458;-62
2021/09/11 06:35:06;;;;;;;7.00;6.25;;;19.30;99.90;;;;;;5093874;28;20024;-63
2021/09/11 06:37:33;;;;;;;7.20;5.47;;;19.40;99.90;;;;;;5092881;28;20344;-62
2021/09/11 06:39:59;;;;;;;7.03;6.38;;;19.40;99.90;;;;;;5092755;28;20031;-62
2021/09/11 06:42:24;;;;;;;6.38;5.78;;;19.40;99.90;;;;;;5092372;28;20070;-62
2021/09/11 06:44:50;;;;;;;8.75;5.90;;;19.40;99.90;;;;;;5094206;28;20139;-62
2021/09/11 06:47:16;;;;;;;7.65;6.35;;;19.40;99.90;;;;;;5093799;28;20365;-63
2021/09/11 06:49:42;;;;;;;7.07;5.63;;;19.40;99.90;;;;;;5094487;28;20040;-62
2021/09/11 06:52:11;;;;;;;8.32;5.95;;;19.40;99.90;;;;;;5093519;28;20072;-62
2021/09/11 06:54:37;;;;;;;6.55;5.90;;;19.40;99.90;;;;;;5092688;28;20380;-63
2021/09/11 06:57:03;;;;;;;6.28;5.68;;;19.60;99.90;;;;;;5091811;28;20054;-66
2021/09/11 06:59:29;;;;;;;7.90;6.82;;;19.60;99.90;;;;;;5093413;28;20073;-62
2021/09/11 07:01:55;;;;;;;7.82;6.20;;;19.50;99.90;;;;;;5093850;28;20028;-61
2021/09/11 07:04:20;;;;;;;9.60;6.65;;;19.50;99.90;;;;;;5092725;28;20131;-62
2021/09/11 07:06:46;;;;;;;7.45;5.88;;;19.60;99.90;;;;;;5092529;28;20028;-63
2021/09/11 07:09:11;;;;;;;8.00;7.22;;;19.50;99.90;;;;;;5091474;28;20032;-63
2021/09/11 07:11:37;;;;;;;8.48;6.32;;;19.50;99.90;;;;;;5093577;28;20024;-62
2021/09/11 07:14:03;;;;;;;6.63;5.95;;;19.50;99.90;;;;;;5093009;28;20409;-77
2021/09/11 07:16:29;;;;;;;8.10;6.50;;;19.40;99.90;;;;;;5092063;28;20359;-62
2021/09/11 07:18:55;;;;;;;14.98;7.28;;;19.40;99.90;;;;;;5091646;28;20402;-62
2021/09/11 07:21:22;;;;;;;9.20;7.55;;;19.50;99.90;;;;;;5092437;28;20547;-62
2021/09/11 07:23:47;;;;;;;9.75;7.30;;;19.50;99.90;;;;;;5092693;28;20032;-62
2021/09/11 07:26:18;;;;;;;8.95;7.97;;;19.60;99.90;;;;;;5092687;28;20448;-62
2021/09/11 07:28:48;;;;;;;12.48;8.68;;;19.60;99.90;;;;;;5090488;28;20031;-62
2021/09/11 07:31:14;;;;;;;7.22;6.53;;;19.50;99.90;;;;;;5092226;28;20050;-63
2021/09/11 07:33:40;;;;;;;10.15;7.43;;;19.40;99.90;;;;;;5091723;28;20028;-63
2021/09/11 07:36:06;;;;;;;10.77;7.20;;;19.50;99.90;;;;;;5092494;28;20024;-62
2021/09/11 07:38:33;;;;;;;9.65;7.55;;;19.50;99.90;;;;;;5092056;28;20028;-62
2021/09/11 07:40:59;;;;;;;7.85;7.05;;;19.50;99.90;;;;;;5091536;28;20039;-63
2021/09/11 07:43:25;;;;;;;10.95;7.47;;;19.40;99.90;;;;;;5091898;28;20365;-62
2021/09/11 07:45:50;;;;;;;8.77;7.15;;;19.50;99.90;;;;;;5091703;28;20021;-62
2021/09/11 07:48:16;;;;;;;7.82;7.13;;;19.50;99.90;;;;;;5090723;28;20024;-62
2021/09/11 07:50:42;;;;;;;8.18;7.07;;;19.50;99.90;;;;;;5091090;28;20028;-63
2021/09/11 07:53:07;;;;;;;7.82;6.60;;;19.70;99.90;;;;;;5091991;28;20055;-63
2021/09/11 07:55:33;;;;;;;10.98;7.97;;;20.00;99.90;;;;;;5092347;28;20055;-63
2021/09/11 07:57:59;;;;;;;7.95;7.03;;;20.10;99.90;;;;;;5092377;28;20386;-63
2021/09/11 08:00:26;;;;;;;7.53;6.82;;;20.20;99.90;;;;;;5091842;28;20305;-63
2021/09/11 08:02:52;;;;;;;6.70;6.07;;;20.20;99.90;;;;;;5092546;28;20028;-63
2021/09/11 08:05:17;;;;;;;6.90;6.28;;;20.10;99.90;;;;;;5090414;28;20463;-63
2021/09/11 08:07:43;;;;;;;9.07;6.18;;;20.00;99.90;;;;;;5090533;28;20032;-62
2021/09/11 08:10:09;;;;;;;9.35;5.85;;;20.10;99.90;;;;;;5091409;28;20077;-63
2021/09/11 08:12:35;;;;;;;7.57;6.80;;;20.00;99.90;;;;;;5090883;28;20024;-63
2021/09/11 08:15:01;;;;;;;8.70;7.13;;;20.10;99.90;;;;;;5092180;28;20068;-63
2021/09/11 08:17:27;;;;;;;7.75;6.78;;;20.10;99.90;;;;;;5090102;28;20028;-63
2021/09/11 08:19:52;;;;;;;9.73;7.00;;;20.00;99.90;;;;;;5090508;28;20040;-63
2021/09/11 08:22:18;;;;;;;8.60;7.07;;;20.10;99.90;;;;;;5090012;28;20383;-62
2021/09/11 08:24:44;;;;;;;9.60;6.43;;;20.10;99.90;;;;;;5091676;28;20051;-62
2021/09/11 08:27:10;;;;;;;7.45;6.63;;;20.20;99.90;;;;;;5091324;28;20373;-62
2021/09/11 08:29:35;;;;;;;6.38;5.65;;;20.20;99.90;;;;;;5090580;28;20563;-63
2021/09/11 08:32:02;;;;;;;9.25;6.72;;;20.40;99.90;;;;;;5092079;28;20127;-63
2021/09/11 08:34:28;;;;;;;11.95;6.30;;;20.40;99.90;;;;;;5090045;28;20032;-63
2021/09/11 08:36:55;;;;;;;7.90;6.28;;;20.50;99.90;;;;;;5073453;28;20024;-62
2021/09/11 08:39:24;;;;;;;7.90;5.93;;;20.60;99.90;;;;;;5090940;28;20099;-63
2021/09/11 08:41:51;;;;;;;8.55;6.05;;;20.60;99.90;;;;;;5090977;28;20469;-63
2021/09/11 08:44:16;;;;;;;6.53;5.45;;;20.70;99.90;;;;;;5090626;28;20032;-63
2021/09/11 08:46:42;;;;;;;7.60;6.15;;;20.80;99.90;;;;;;5090071;28;20307;-62
2021/09/11 08:49:10;;;;;;;7.93;6.28;;;20.90;99.90;;;;;;5090709;28;20035;-80
2021/09/11 08:51:36;;;;;;;10.77;6.40;;;20.90;99.90;;;;;;5089703;28;20403;-62
2021/09/11 08:54:02;;;;;;;7.80;5.70;;;20.90;99.90;;;;;;5089496;28;20042;-63
2021/09/11 08:56:36;;;;;;;7.70;5.93;;;20.90;99.90;;;;;;5088488;28;20250;-63
2021/09/11 08:59:12;;;;;;;8.23;6.05;;;21.20;99.90;;;;;;5091445;28;20035;-63
2021/09/11 09:01:38;;;;;;;8.27;5.70;;;21.40;99.90;;;;;;5090958;28;20028;-63
2021/09/11 09:04:04;;;;;;;5.97;5.38;;;21.70;99.90;;;;;;5090652;28;20047;-63
2021/09/11 09:06:31;;;;;;;6.05;5.30;;;21.90;99.90;;;;;;5088996;28;20042;-63
2021/09/11 09:09:10;;;;;;;7.45;5.32;;;22.10;99.90;;;;;;5090808;28;20020;-62
2021/09/11 09:11:38;;;;;;;5.60;4.75;;;22.20;99.90;;;;;;5089224;28;20028;-63
2021/09/11 09:14:12;;;;;;;6.90;5.22;;;22.30;99.90;;;;;;5090564;28;20089;-62
2021/09/11 09:16:42;;;;;;;5.63;4.80;;;22.30;99.90;;;;;;5088712;28;20024;-62
2021/09/11 09:19:22;;;;;;;5.28;4.70;;;22.40;99.90;;;;;;5089321;28;20031;-63
2021/09/11 09:21:51;;;;;;;5.90;4.05;;;22.70;99.90;;;;;;5091062;28;20028;-63
2021/09/11 09:24:31;;;;;;;6.10;4.82;;;22.70;99.90;;;;;;5087909;28;20055;-63
2021/09/11 09:27:03;;;;;;;5.55;3.95;;;22.40;99.90;;;;;;5088899;28;20024;-63
2021/09/11 09:29:29;;;;;;;5.25;4.75;;;22.40;99.90;;;;;;5088220;28;20024;-64
2021/09/11 09:31:58;;;;;;;6.20;4.38;;;22.40;99.90;;;;;;5090509;28;20115;-64
2021/09/11 09:34:33;;;;;;;3.50;3.20;;;22.50;99.90;;;;;;5087357;28;20099;-64
2021/09/11 09:37:02;;;;;;;6.13;3.58;;;22.60;99.90;;;;;;5088683;28;20024;-63
2021/09/11 09:39:37;;;;;;;5.40;3.90;;;22.60;99.90;;;;;;5088645;28;20031;-72
2021/09/11 09:42:03;;;;;;;5.45;3.50;;;22.70;99.90;;;;;;5088639;28;20410;-61
2021/09/11 09:44:41;;;;;;;5.10;3.70;;;22.80;99.90;;;;;;5088020;28;20051;-60
2021/09/11 09:47:11;;;;;;;4.75;3.70;;;22.70;99.90;;;;;;5088399;28;20063;-61
2021/09/11 09:49:37;;;;;;;3.15;2.85;;;23.00;99.90;;;;;;5087202;28;20062;-61
2021/09/11 09:52:03;;;;;;;5.18;3.72;;;23.20;99.90;;;;;;5092006;28;20052;-61
2021/09/11 09:54:29;;;;;;;4.10;3.33;;;23.20;99.90;;;;;;5095515;28;20117;-61
2021/09/11 09:56:56;;;;;;;4.70;3.20;;;23.40;99.90;;;;;;5094828;28;20020;-62
2021/09/11 09:59:22;;;;;;;3.85;3.15;;;23.30;99.90;;;;;;5096123;28;20043;-61
2021/09/11 10:01:50;;;;;;;3.90;3.60;;;23.40;99.90;;;;;;5096669;28;20081;-62
2021/09/11 10:04:21;;;;;;;4.15;3.75;;;23.30;99.90;;;;;;5093996;28;20024;-64
2021/09/11 10:06:55;;;;;;;8.40;3.67;;;23.30;99.90;;;;;;5094434;28;20024;-63
2021/09/11 10:09:27;;;;;;;3.80;3.47;;;23.80;99.90;;;;;;5094904;28;20032;-62
2021/09/11 10:11:53;;;;;;;5.43;3.30;;;24.30;99.90;;;;;;5095604;28;20020;-61
2021/09/11 10:14:21;;;;;;;5.20;3.80;;;24.80;99.90;;;;;;5094556;28;20044;-62
2021/09/11 10:17:01;;;;;;;5.32;3.63;;;25.20;99.90;;;;;;5093778;28;20024;-63
2021/09/11 10:19:29;;;;;;;4.43;4.03;;;25.20;99.90;;;;;;5091808;28;20526;-61
2021/09/11 10:22:22;;;;;;;4.93;3.10;;;25.30;99.90;;;;;;5091236;28;20020;-62
2021/09/11 10:25:14;;;;;;;3.95;3.22;;;25.40;99.90;;;;;;5086891;28;20044;-62
2021/09/11 10:27:41;;;;;;;5.90;3.20;;;25.30;99.90;;;;;;5088997;28;20032;-62
2021/09/11 10:30:12;;;;;;;4.68;3.83;;;25.20;99.90;;;;;;5095574;28;20020;-63
2021/09/11 10:32:44;;;;;;;7.20;3.63;;;25.10;99.90;;;;;;5092361;28;20024;-62
2021/09/11 10:35:24;;;;;;;3.65;3.25;;;25.20;99.90;;;;;;5093440;28;20515;-61
2021/09/11 10:37:59;;;;;;;4.00;3.70;;;25.20;99.90;;;;;;5095092;28;20051;-62
2021/09/11 10:40:28;;;;;;;3.78;3.40;;;25.10;99.90;;;;;;5094084;28;20123;-63
2021/09/11 10:43:19;;;;;;;5.35;3.67;;;25.20;99.90;;;;;;5093166;28;20031;-61
2021/09/11 10:45:57;;;;;;;;;;;25.20;99.90;;;;;;5092463;28;20028;-64
2021/09/11 10:48:44;;;;;;;5.03;3.42;;;25.60;99.90;;;;;;5090778;28;19904;-61
2021/09/11 10:51:32;;;;;;;7.07;3.05;;;25.70;99.90;;;;;;5094508;28;20031;-61
2021/09/11 10:54:22;;;;;;;3.28;2.97;;;25.60;99.90;;;;;;5092432;28;20028;-62
2021/09/11 10:56:47;;;;;;;3.25;2.95;;;25.50;99.90;;;;;;5091872;28;20016;-62
2021/09/11 10:59:18;;;;;;;3.58;3.28;;;25.20;99.90;;;;;;5094328;28;20097;-65
2021/09/11 11:01:57;;;;;;;5.25;3.15;;;25.10;99.90;;;;;;5092756;28;20036;-62
2021/09/11 11:04:37;;;;;;;5.28;3.20;;;24.90;99.90;;;;;;5091339;28;20034;-61
2021/09/11 11:07:08;;;;;;;2.90;2.55;;;24.60;99.90;;;;;;5092647;28;20452;-62
2021/09/11 11:09:35;;;;;;;;;;;24.50;99.90;;;;;;5089932;28;20020;-60
2021/09/11 11:12:00;;;;;;;4.80;3.40;;;24.40;99.90;;;;;;5091760;28;19991;-60
2021/09/11 11:14:30;;;;;;;4.20;2.88;;;24.30;99.90;;;;;;5090157;28;20031;-61
2021/09/11 11:16:56;;;;;;;5.10;3.05;;;24.10;99.90;;;;;;5092706;28;20028;-58
2021/09/11 11:19:31;;;;;;;4.68;2.83;;;24.20;99.90;;;;;;5088574;28;20334;-58
2021/09/11 11:22:05;;;;;;;2.90;2.50;;;24.10;99.90;;;;;;5090425;28;20091;-59
2021/09/11 11:24:35;;;;;;;5.55;3.05;;;24.60;99.90;;;;;;5090657;28;20158;-59
2021/09/11 11:27:06;;;;;;;2.83;2.50;;;24.60;99.90;;;;;;5089739;28;20024;-59
2021/09/11 11:29:33;;;;;;;4.45;2.55;;;24.30;99.90;;;;;;5088501;28;20297;-58
2021/09/11 11:32:00;;;;;;;4.13;2.92;;;24.40;99.90;;;;;;5088911;28;20043;-60
2021/09/11 11:34:26;;;;;;;4.30;2.95;;;24.30;99.90;;;;;;5088724;28;20080;-59
2021/09/11 11:37:12;;;;;;;4.28;2.63;;;24.10;99.90;;;;;;5089261;28;20032;-60
2021/09/11 11:39:43;;;;;;;1.73;1.50;;;24.10;99.90;;;;;;5088897;28;20344;-60
2021/09/11 11:42:33;;;;;;;2.25;1.80;;;24.10;99.90;;;;;;5089535;28;20081;-59
2021/09/11 11:45:00;;;;;;;2.00;1.80;;;24.20;99.90;;;;;;5090698;28;20054;-60
2021/09/11 11:47:31;;;;;;;2.33;1.95;;;24.10;99.90;;;;;;5089232;28;20478;-58
2021/09/11 11:49:58;;;;;;;2.80;1.60;;;23.90;99.90;;;;;;5089224;28;20039;-59
2021/09/11 11:52:25;;;;;;;2.45;2.05;;;23.70;99.90;;;;;;5088634;28;20386;-59
2021/09/11 11:54:51;;;;;;;2.33;1.83;;;23.50;99.90;;;;;;5089098;28;20028;-59
2021/09/11 11:57:19;;;;;;;3.42;2.00;;;23.40;99.90;;;;;;5089027;28;20024;-59
2021/09/11 11:59:57;;;;;;;4.05;1.95;;;23.30;99.90;;;;;;5089297;28;20024;-59
2021/09/11 12:02:26;;;;;;;2.17;1.73;;;22.90;99.90;;;;;;5086962;28;20098;-65
2021/09/11 12:04:53;;;;;;;3.58;1.90;;;22.90;99.90;;;;;;5081543;28;20092;-60
2021/09/11 12:07:32;;;;;;;2.63;1.50;;;22.80;99.90;;;;;;5088574;28;20055;-60
2021/09/11 12:10:00;;;;;;;5.70;1.60;;;22.90;99.90;;;;;;5087020;28;20104;-59
2021/09/11 12:12:46;;;;;;;7.40;2.38;;;22.60;99.90;;;;;;5069794;28;20051;-59
2021/09/11 12:15:14;;;;;;;4.20;2.38;;;22.50;99.90;;;;;;5062465;28;20063;-60
2021/09/11 12:17:53;;;;;;;2.47;1.90;;;22.40;99.90;;;;;;5088215;28;20032;-59
2021/09/11 12:20:19;;;;;;;5.40;2.50;;;22.40;99.90;;;;;;5088912;28;20141;-61
2021/09/11 12:23:10;;;;;;;5.05;2.13;;;22.30;99.90;;;;;;5090670;28;20028;-62
2021/09/11 12:26:04;;;;;;;4.10;2.33;;;22.40;99.90;;;;;;5086108;28;20056;-71
2021/09/11 12:28:37;;;;;;;4.45;1.92;;;22.10;99.90;;;;;;5085504;28;20110;-71
2021/09/11 12:31:05;;;;;;;4.07;2.03;;;22.00;99.90;;;;;;5083629;28;20036;-71
2021/09/11 12:33:40;;;;;;;3.63;2.13;;;22.10;99.90;;;;;;5086647;28;20044;-69
2021/09/11 12:36:23;;;;;;;2.25;1.65;;;22.00;99.90;;;;;;5090416;28;20452;-70
2021/09/11 12:38:50;;;;;;;3.58;1.65;;;22.20;99.90;;;;;;5088361;28;20032;-69
2021/09/11 12:41:16;;;;;;;2.58;1.45;;;22.30;99.90;;;;;;5088517;28;20381;-70
2021/09/11 12:43:42;;;;;;;5.32;1.92;;;22.30;99.90;;;;;;5088711;28;20032;-70
2021/09/11 12:46:09;;;;;;;2.42;1.38;;;22.30;99.90;;;;;;5090282;28;20039;-69
2021/09/11 12:48:34;;;;;;;2.85;0.82;;;22.30;99.90;;;;;;5087924;28;20107;-70